createdAt,value
2024-04-15T03:31:40.360Z,11.17
2024-04-15T03:34:07.784Z,11.55
2024-04-15T03:36:34.954Z,11.73
2024-04-15T03:39:02.169Z,12.10
2024-04-15T03:41:29.423Z,12.39
2024-04-15T03:43:56.872Z,11.64
2024-04-15T03:46:24.311Z,11.90
2024-04-15T03:48:51.929Z,11.56
2024-04-15T03:51:19.189Z,11.83
2024-04-15T03:53:46.498Z,11.87
2024-04-15T03:56:13.622Z,11.14
2024-04-15T03:58:40.842Z,10.61
2024-04-15T04:01:08.028Z,10.46
2024-04-15T04:03:35.230Z,10.22
2024-04-15T04:06:10.967Z,10.64
2024-04-15T04:08:40.979Z,11.66
2024-04-15T04:11:08.562Z,11.88
2024-04-15T04:13:39.066Z,11.69
2024-04-15T04:16:06.790Z,11.75
2024-04-15T04:18:34.167Z,11.59
2024-04-15T04:21:01.595Z,11.84
2024-04-15T04:23:28.852Z,12.07
2024-04-15T04:25:56.310Z,11.99
2024-04-15T04:28:23.610Z,12.41
2024-04-15T04:30:50.856Z,12.41
2024-04-15T04:33:18.244Z,12.30
2024-04-15T04:35:45.565Z,12.32
2024-04-15T04:38:12.794Z,12.61
2024-04-15T04:40:40.249Z,13.07
2024-04-15T04:43:07.605Z,13.20
2024-04-15T04:45:34.912Z,13.40
2024-04-15T04:48:02.177Z,13.74
2024-04-15T04:50:29.330Z,13.84
2024-04-15T04:52:56.587Z,12.91
2024-04-15T04:55:24.455Z,13.58
2024-04-15T04:57:51.807Z,14.04
2024-04-15T05:00:19.017Z,13.69
2024-04-15T05:02:47.396Z,12.70
2024-04-15T05:05:14.745Z,13.59
2024-04-15T05:07:41.906Z,12.99
2024-04-15T05:10:09.099Z,13.01
2024-04-15T05:12:36.307Z,13.83
2024-04-15T05:15:03.676Z,14.03
2024-04-15T05:17:31.054Z,14.09
2024-04-15T05:19:58.664Z,13.42
2024-04-15T05:22:25.970Z,13.70
2024-04-15T05:24:54.462Z,13.76
2024-04-15T05:27:21.638Z,13.99
2024-04-15T05:29:48.746Z,13.76
2024-04-15T05:32:15.983Z,13.99
2024-04-15T05:34:44.971Z,13.71
2024-04-15T05:37:12.213Z,13.62
2024-04-15T05:39:39.486Z,13.57
2024-04-15T05:42:06.718Z,13.63
2024-04-15T05:44:33.888Z,14.12
2024-04-15T05:47:01.074Z,14.47
2024-04-15T05:49:28.285Z,14.46
2024-04-15T05:51:55.627Z,13.27
2024-04-15T05:54:22.844Z,13.35
2024-04-15T05:56:50.136Z,13.69
2024-04-15T05:59:17.239Z,14.33
2024-04-15T06:01:44.581Z,14.76
2024-04-15T06:04:11.810Z,15.15
2024-04-15T06:06:39.071Z,15.31
2024-04-15T06:09:06.191Z,15.00
2024-04-15T06:11:33.422Z,14.40
2024-04-15T06:14:00.660Z,14.51
2024-04-15T06:16:27.900Z,14.35
2024-04-15T06:18:55.194Z,13.25
2024-04-15T06:21:22.384Z,12.87
2024-04-15T06:23:49.522Z,13.19
2024-04-15T06:26:16.665Z,13.49
2024-04-15T06:28:43.752Z,13.11
2024-04-15T06:31:11.204Z,12.48
2024-04-15T06:33:38.527Z,13.01
2024-04-15T06:36:06.091Z,12.53
2024-04-15T06:38:33.185Z,11.50
2024-04-15T06:41:01.442Z,12.07
2024-04-15T06:43:28.877Z,12.54
2024-04-15T06:45:56.099Z,13.36
2024-04-15T06:48:23.408Z,13.93
2024-04-15T06:50:50.557Z,13.88
2024-04-15T06:53:17.655Z,13.60
2024-04-15T06:55:44.844Z,14.05
2024-04-15T06:58:12.021Z,14.12
2024-04-15T07:00:39.235Z,13.72
2024-04-15T07:03:06.397Z,14.13
2024-04-15T07:05:34.333Z,14.35
2024-04-15T07:08:02.596Z,14.26
2024-04-15T07:10:29.915Z,14.90
2024-04-15T07:12:57.422Z,14.94
2024-04-15T07:15:24.614Z,12.54
2024-04-15T07:17:51.864Z,14.12
2024-04-15T07:20:19.177Z,14.77
2024-04-15T07:22:47.024Z,15.14
2024-04-15T07:25:14.323Z,14.90
2024-04-15T07:27:42.067Z,14.18
2024-04-15T07:30:11.704Z,14.63
2024-04-15T07:32:40.227Z,14.98
2024-04-15T07:35:07.833Z,14.30
2024-04-15T07:37:35.008Z,14.26
2024-04-15T07:40:03.482Z,14.90
2024-04-15T07:42:39.458Z,14.97
2024-04-15T07:45:10.854Z,14.50
2024-04-15T07:47:38.292Z,12.66
2024-04-15T07:50:06.492Z,13.79
2024-04-15T07:52:33.727Z,14.11
2024-04-15T07:55:01.812Z,13.48
2024-04-15T07:57:29.040Z,13.24
2024-04-15T07:59:56.258Z,13.68
2024-04-15T08:02:24.368Z,14.09
2024-04-15T08:04:51.724Z,14.51
2024-04-15T08:07:18.975Z,14.31
2024-04-15T08:09:46.249Z,14.30
2024-04-15T08:12:13.422Z,14.59
2024-04-15T08:14:40.565Z,15.01
2024-04-15T08:17:08.599Z,15.22
2024-04-15T08:19:37.456Z,14.53
2024-04-15T08:22:04.971Z,14.31
2024-04-15T08:24:32.199Z,13.83
2024-04-15T08:26:59.343Z,13.90
2024-04-15T08:29:27.200Z,13.70
2024-04-15T08:31:56.084Z,13.16
2024-04-15T08:34:23.970Z,13.62
2024-04-15T08:36:51.286Z,14.33
2024-04-15T08:39:18.594Z,14.51
2024-04-15T08:42:01.085Z,14.00
2024-04-15T08:44:33.567Z,14.04
2024-04-15T08:47:02.414Z,14.35
2024-04-15T08:49:29.851Z,13.51
2024-04-15T08:51:57.017Z,14.29
2024-04-15T08:54:24.217Z,14.36
2024-04-15T08:56:51.428Z,13.93
2024-04-15T08:59:19.036Z,13.72
2024-04-15T09:01:46.238Z,14.31
2024-04-15T09:04:14.391Z,14.90
2024-04-15T09:09:37.754Z,14.82
2024-04-15T09:12:05.121Z,13.61
2024-04-15T09:14:34.844Z,14.00
2024-04-15T09:17:03.108Z,13.82
2024-04-15T09:19:30.930Z,14.31
2024-04-15T09:22:04.458Z,14.52
2024-04-15T09:24:31.765Z,14.29
2024-04-15T09:26:58.861Z,14.77
2024-04-15T09:29:26.023Z,14.80
2024-04-15T09:31:53.177Z,15.40
2024-04-15T09:34:20.429Z,14.65
2024-04-15T09:37:00.351Z,14.65
2024-04-15T09:39:28.371Z,13.92
2024-04-15T09:41:56.091Z,14.32
2024-04-15T09:44:23.223Z,13.83
2024-04-15T09:46:50.380Z,13.16
2024-04-15T09:49:17.583Z,13.03
2024-04-15T09:51:44.982Z,13.22
2024-04-15T09:54:12.141Z,13.76
2024-04-15T09:56:43.299Z,12.94
2024-04-15T09:59:13.468Z,13.45
2024-04-15T10:01:40.699Z,14.01
2024-04-15T10:04:17.349Z,13.82
2024-04-15T10:06:49.684Z,13.93
2024-04-15T10:09:16.960Z,13.34
2024-04-15T10:11:44.622Z,14.13
2024-04-15T10:14:11.926Z,13.28
2024-04-15T10:16:41.328Z,13.29
2024-04-15T10:19:11.875Z,13.20
2024-04-15T10:21:39.058Z,13.09
2024-04-15T10:24:06.458Z,13.88
2024-04-15T10:26:33.604Z,13.61
2024-04-15T10:29:16.121Z,13.25
2024-04-15T10:31:43.243Z,14.18
2024-04-15T10:34:15.123Z,14.12
2024-04-15T10:36:45.141Z,14.80
2024-04-15T10:39:16.649Z,14.44
2024-04-15T10:41:44.543Z,14.86
2024-04-15T10:44:11.998Z,14.24
2024-04-15T10:46:43.726Z,13.97
2024-04-15T10:49:11.090Z,14.52
2024-04-15T10:51:39.217Z,14.82
2024-04-15T10:54:06.485Z,14.38
2024-04-15T10:56:33.750Z,14.65
2024-04-15T10:59:00.909Z,13.50
2024-04-15T11:01:29.758Z,14.19
2024-04-15T11:03:57.330Z,13.81
2024-04-15T11:06:24.898Z,14.46
2024-04-15T11:08:52.131Z,14.55
2024-04-15T11:11:19.252Z,13.42
2024-04-15T11:13:46.423Z,12.84
2024-04-15T11:16:14.722Z,12.57
2024-04-15T11:18:42.039Z,12.84
2024-04-15T11:21:09.157Z,12.45
2024-04-15T11:23:36.343Z,11.66
2024-04-15T11:26:03.713Z,12.34
2024-04-15T11:28:31.133Z,12.60
2024-04-15T11:30:58.555Z,13.22
2024-04-15T11:33:25.838Z,13.36
2024-04-15T11:35:54.005Z,12.85
2024-04-15T11:38:23.242Z,13.52
2024-04-15T11:40:50.835Z,13.15
2024-04-15T11:43:18.107Z,13.40
2024-04-15T11:45:55.469Z,13.14
2024-04-15T11:48:23.256Z,13.38
2024-04-15T11:50:50.974Z,13.48
2024-04-15T11:53:22.741Z,13.56
2024-04-15T11:55:49.916Z,13.50
2024-04-15T11:58:18.132Z,13.79
2024-04-15T12:00:46.911Z,12.96
2024-04-15T12:03:14.268Z,12.04
2024-04-15T12:05:41.536Z,12.86
2024-04-15T12:08:09.009Z,12.67
2024-04-15T12:10:36.221Z,13.23
2024-04-15T12:13:05.147Z,12.88
2024-04-15T12:15:32.363Z,13.51
2024-04-15T12:17:59.530Z,13.56
2024-04-15T12:20:26.661Z,13.35
2024-04-15T12:22:54.434Z,13.94
2024-04-15T12:25:21.676Z,13.30
2024-04-15T12:27:48.955Z,13.81
2024-04-15T12:30:16.504Z,14.30
2024-04-15T12:32:43.838Z,14.64
2024-04-15T12:35:12.191Z,13.80
2024-04-15T12:37:39.500Z,13.11
2024-04-15T12:40:07.464Z,12.82
2024-04-15T12:42:35.462Z,13.24
2024-04-15T12:45:03.798Z,13.43
2024-04-15T12:47:32.138Z,12.91
2024-04-15T12:49:59.373Z,12.72
2024-04-15T12:52:26.687Z,13.04
2024-04-15T12:54:54.395Z,13.31
2024-04-15T12:57:22.772Z,13.33
2024-04-15T12:59:49.911Z,13.54
2024-04-15T13:02:17.208Z,12.76
2024-04-15T13:04:44.696Z,12.72
2024-04-15T13:07:11.953Z,12.36
2024-04-15T13:09:39.669Z,12.71
2024-04-15T13:12:08.434Z,12.70
2024-04-15T13:14:35.529Z,12.17
2024-04-15T13:17:02.699Z,12.32
2024-04-15T13:19:29.850Z,13.06
2024-04-15T13:21:57.076Z,12.49
2024-04-15T13:24:24.206Z,12.62
2024-04-15T13:26:51.403Z,12.36
2024-04-15T13:29:18.536Z,12.01
2024-04-15T13:31:51.000Z,12.37
2024-04-15T13:34:27.990Z,13.23
2024-04-15T13:36:56.965Z,12.21
2024-04-15T13:39:24.138Z,11.83
2024-04-15T13:41:51.636Z,11.77
2024-04-15T13:44:19.183Z,11.16
2024-04-15T13:46:46.445Z,11.08
2024-04-15T13:49:13.691Z,11.10
2024-04-15T13:51:40.981Z,11.92
2024-04-15T13:54:08.217Z,11.62
2024-04-15T13:56:35.346Z,11.50
2024-04-15T13:59:02.710Z,11.25
2024-04-15T14:01:29.889Z,12.09
2024-04-15T14:03:57.104Z,12.58
2024-04-15T14:06:24.777Z,12.96
2024-04-15T14:08:52.746Z,12.90
2024-04-15T14:11:20.120Z,12.95
2024-04-15T14:13:47.597Z,13.11
2024-04-15T14:16:14.925Z,13.55
2024-04-15T14:18:42.692Z,13.99
2024-04-15T14:21:10.019Z,13.21
2024-04-15T14:23:37.182Z,13.09
2024-04-15T14:26:04.509Z,13.53
2024-04-15T14:28:31.738Z,13.44
2024-04-15T14:30:59.001Z,12.56
2024-04-15T14:33:26.746Z,12.73
2024-04-15T14:35:53.983Z,13.04
2024-04-15T14:38:21.176Z,12.72
2024-04-15T14:40:48.944Z,12.89
2024-04-15T14:43:16.437Z,13.50
2024-04-15T14:45:45.037Z,14.15
2024-04-15T14:48:12.246Z,13.50
2024-04-15T14:50:40.267Z,13.59
2024-04-15T14:53:07.495Z,13.37
2024-04-15T14:55:34.705Z,13.30
2024-04-15T14:58:02.086Z,13.45
2024-04-15T15:00:29.922Z,13.20
2024-04-15T15:02:57.083Z,14.21
2024-04-15T15:05:24.562Z,14.68
2024-04-15T15:07:51.772Z,14.34
2024-04-15T15:10:19.427Z,14.19
2024-04-15T15:12:46.652Z,14.18
2024-04-15T15:15:13.855Z,14.20
2024-04-15T15:17:41.126Z,13.67
2024-04-15T15:20:09.191Z,14.08
2024-04-15T15:22:36.334Z,14.24
2024-04-15T15:25:03.979Z,13.99
2024-04-15T15:27:31.363Z,13.07
2024-04-15T15:29:58.566Z,12.48
2024-04-15T15:32:25.791Z,13.31
2024-04-15T15:34:53.175Z,13.68
2024-04-15T15:37:20.443Z,13.59
2024-04-15T15:39:47.848Z,13.04
2024-04-15T15:42:14.996Z,12.80
2024-04-15T15:44:42.193Z,10.97
2024-04-15T15:47:10.261Z,11.68
2024-04-15T15:49:37.454Z,11.42
2024-04-15T15:52:05.526Z,12.18
2024-04-15T15:54:32.719Z,12.44
2024-04-15T15:56:59.851Z,12.94
2024-04-15T15:59:27.023Z,13.10
2024-04-15T16:01:54.323Z,12.88
2024-04-15T16:04:21.803Z,12.58
2024-04-15T16:06:49.396Z,12.36
2024-04-15T16:09:16.544Z,12.64
2024-04-15T16:11:46.990Z,12.62
2024-04-15T16:14:15.118Z,13.46
2024-04-15T16:16:42.235Z,13.45
2024-04-15T16:19:10.646Z,13.73
2024-04-15T16:21:39.514Z,13.89
2024-04-15T16:24:06.995Z,13.65
2024-04-15T16:26:34.961Z,13.85
2024-04-15T16:29:05.436Z,14.09
2024-04-15T16:31:32.883Z,12.24
2024-04-15T16:34:00.151Z,12.41
2024-04-15T16:36:30.146Z,11.84
2024-04-15T16:38:57.506Z,12.93
2024-04-15T16:41:25.215Z,12.58
2024-04-15T16:43:52.681Z,12.86
2024-04-15T16:46:20.562Z,12.98
2024-04-15T16:48:47.837Z,13.49
2024-04-15T16:51:14.960Z,14.07
2024-04-15T16:53:42.133Z,14.38
2024-04-15T16:56:09.730Z,14.29
2024-04-15T16:58:37.076Z,14.68
2024-04-15T17:01:04.509Z,14.46
2024-04-15T17:03:31.821Z,14.18
2024-04-15T17:05:58.985Z,13.37
2024-04-15T17:08:26.215Z,13.99
2024-04-15T17:10:54.156Z,13.72
2024-04-15T17:13:21.482Z,14.12
2024-04-15T17:15:48.648Z,14.24
2024-04-15T17:18:15.872Z,13.96
2024-04-15T17:20:44.058Z,13.62
2024-04-15T17:23:11.267Z,14.13
2024-04-15T17:25:38.646Z,14.03
2024-04-15T17:28:06.454Z,13.70
2024-04-15T17:30:33.635Z,13.65
2024-04-15T17:33:01.047Z,12.99
2024-04-15T17:35:28.283Z,13.56
2024-04-15T17:37:55.769Z,12.46
2024-04-15T17:40:22.951Z,12.48
2024-04-15T17:42:52.835Z,12.75
2024-04-15T17:45:20.203Z,12.00
2024-04-15T17:47:47.804Z,12.04
2024-04-15T17:50:14.990Z,12.02
2024-04-15T17:52:42.252Z,11.87
2024-04-15T17:55:09.573Z,11.86
2024-04-15T17:57:36.805Z,12.80
2024-04-15T18:00:04.162Z,12.35
2024-04-15T18:02:32.474Z,13.00
2024-04-15T18:05:01.055Z,12.74
2024-04-15T18:07:30.268Z,13.28
2024-04-15T18:09:57.458Z,13.30
2024-04-15T18:12:24.747Z,13.87
2024-04-15T18:14:52.001Z,13.87
2024-04-15T18:17:19.426Z,13.89
2024-04-15T18:19:46.704Z,13.45
2024-04-15T18:22:13.926Z,13.59
2024-04-15T18:24:41.348Z,13.67
2024-04-15T18:27:08.603Z,13.32
2024-04-15T18:29:35.907Z,13.23
2024-04-15T18:32:03.305Z,13.29
2024-04-15T18:34:30.613Z,12.97
2024-04-15T18:36:57.931Z,12.90
2024-04-15T18:39:25.167Z,12.57
2024-04-15T18:41:52.335Z,12.63
2024-04-15T18:44:19.541Z,13.03
2024-04-15T18:46:46.677Z,12.68
2024-04-15T18:49:13.866Z,12.14
2024-04-15T18:51:41.523Z,12.55
2024-04-15T18:54:08.633Z,12.17
2024-04-15T18:56:36.308Z,11.31
2024-04-15T18:59:03.458Z,11.60
2024-04-15T19:01:31.258Z,11.60
2024-04-15T19:03:58.533Z,11.91
2024-04-15T19:06:25.736Z,12.49
2024-04-15T19:08:53.344Z,12.40
2024-04-15T19:11:20.600Z,12.42
2024-04-15T19:13:47.774Z,12.96
2024-04-15T19:16:15.407Z,12.87
2024-04-15T19:18:42.993Z,12.54
2024-04-15T19:21:10.253Z,12.38
2024-04-15T19:23:37.450Z,12.21
2024-04-15T19:26:04.846Z,12.02
2024-04-15T19:28:32.052Z,11.83
2024-04-15T19:30:59.391Z,12.06
2024-04-15T19:33:26.646Z,12.17
2024-04-15T19:35:53.860Z,11.81
2024-04-15T19:38:21.491Z,12.18
2024-04-15T19:40:48.722Z,12.42
2024-04-15T19:43:15.904Z,11.73
2024-04-15T19:45:43.126Z,12.10
2024-04-15T19:48:10.415Z,11.48
2024-04-15T19:50:37.689Z,12.04
2024-04-15T19:53:04.939Z,12.10
2024-04-15T19:55:32.146Z,11.95
2024-04-15T19:58:01.071Z,11.67
2024-04-15T20:00:31.188Z,10.82
2024-04-15T20:02:58.465Z,11.22
2024-04-15T20:05:25.694Z,11.04
2024-04-15T20:07:53.175Z,11.20
2024-04-15T20:10:20.502Z,10.73
2024-04-15T20:12:47.808Z,9.94
2024-04-15T20:15:17.573Z,8.98
2024-04-15T20:17:56.979Z,9.61
2024-04-15T20:20:29.757Z,8.81
2024-04-15T20:22:56.906Z,9.78
2024-04-15T20:25:24.409Z,8.93
2024-04-15T20:27:51.606Z,9.28
2024-04-15T20:30:18.927Z,9.03
2024-04-15T20:32:47.378Z,8.83
2024-04-15T20:35:14.739Z,8.29
2024-04-15T20:37:42.027Z,9.07
2024-04-15T20:40:09.878Z,8.80
2024-04-15T20:42:37.997Z,9.15
2024-04-15T20:45:05.796Z,9.65
2024-04-15T20:47:33.356Z,9.58
2024-04-15T20:50:01.383Z,9.13
2024-04-15T20:52:28.818Z,10.14
2024-04-15T20:54:56.085Z,9.76
2024-04-15T20:57:23.464Z,10.00
2024-04-15T20:59:50.680Z,9.87
2024-04-15T21:02:18.198Z,10.04
2024-04-15T21:04:45.525Z,9.03
2024-04-15T21:07:12.753Z,8.00
2024-04-15T21:09:40.026Z,7.78
2024-04-15T21:12:07.822Z,7.40
2024-04-15T21:14:35.042Z,7.14
2024-04-15T21:17:02.225Z,6.89
2024-04-15T21:19:29.526Z,7.16
2024-04-15T21:21:56.789Z,6.24
2024-04-15T21:24:24.006Z,5.92
2024-04-15T21:26:51.166Z,6.71
2024-04-15T21:29:18.406Z,5.85
2024-04-15T21:31:45.540Z,5.77
2024-04-15T21:34:12.775Z,5.02
2024-04-15T21:36:40.084Z,5.86
2024-04-15T21:39:07.321Z,4.81
2024-04-15T21:41:34.435Z,5.55
2024-04-15T21:44:04.030Z,6.47
2024-04-15T21:46:31.419Z,6.48
2024-04-15T21:48:58.744Z,6.73
2024-04-15T21:51:26.348Z,6.68
2024-04-15T21:53:53.497Z,5.34
2024-04-15T21:56:20.614Z,6.46
2024-04-15T21:58:47.770Z,6.22
